Time;durP1;ratioP1;P1;durP2;ratioP2;P2;SDS_P1;SDS_P2;PMS_P1;PMS_P2;Temp;Humidity;BMP_temperature;BMP_pressure;BME280_temperature;BME280_humidity;BME280_pressure;Samples;Min_cycle;Max_cycle;Signal;HPM_P1;HPM_P2
2023/07/07 00:02:10;;;;;;;9.30;4.03;;;11.90;99.90;;;10.88;83.80;101654.03;4989411;28;20034;-75
2023/07/07 00:04:35;;;;;;;11.00;3.13;;;11.90;99.90;;;10.92;84.97;101670.63;4988816;28;20117;-76
2023/07/07 00:07:01;;;;;;;4.45;2.83;;;11.90;99.90;;;10.92;85.66;101668.84;4987461;28;20045;-76
2023/07/07 00:09:27;;;;;;;2.47;1.90;;;11.90;99.90;;;10.90;85.19;101670.66;4989135;28;20038;-75
2023/07/07 00:11:53;;;;;;;5.78;2.50;;;11.90;99.90;;;10.83;84.24;101669.16;4982795;28;20117;-76
2023/07/07 00:14:20;;;;;;;6.97;2.42;;;11.80;99.90;;;10.74;83.53;101667.69;4992067;28;20394;-77
2023/07/07 00:16:46;;;;;;;8.07;4.13;;;11.80;99.90;;;10.67;83.33;101671.44;4989545;28;20065;-75
2023/07/07 00:19:12;;;;;;;7.78;3.17;;;11.70;99.90;;;10.63;83.98;101667.16;4990224;28;20380;-75
2023/07/07 00:21:38;;;;;;;11.32;3.15;;;11.70;99.90;;;10.59;84.56;101669.03;4975402;28;20032;-75
2023/07/07 00:24:05;;;;;;;9.48;4.38;;;11.70;99.90;;;10.59;86.54;101670.81;4990150;28;20517;-76
2023/07/07 00:26:32;;;;;;;7.53;4.00;;;11.70;99.90;;;10.59;87.16;101676.94;4989117;28;20076;-76
2023/07/07 00:28:59;;;;;;;15.45;4.57;;;11.70;99.90;;;10.59;88.27;101676.06;4989382;28;20121;-75
2023/07/07 00:31:25;;;;;;;6.78;3.45;;;11.70;99.90;;;10.61;89.49;101674.25;4982437;28;20035;-77
2023/07/07 00:33:51;;;;;;;9.18;3.33;;;11.70;99.90;;;10.64;90.17;101679.41;4990179;28;20145;-76
2023/07/07 00:36:18;;;;;;;7.82;3.80;;;11.70;99.90;;;10.65;90.32;101670.63;4985839;28;20104;-75
2023/07/07 00:38:43;;;;;;;10.95;5.00;;;11.70;99.90;;;10.67;91.01;101680.19;4987951;28;20030;-75
2023/07/07 00:41:10;;;;;;;15.73;4.90;;;11.80;99.90;;;10.68;92.67;101681.91;4987272;28;20070;-75
2023/07/07 00:43:37;;;;;;;8.88;4.15;;;11.70;99.90;;;10.72;93.26;101692.34;4991128;28;20065;-75
2023/07/07 00:46:04;;;;;;;8.38;3.40;;;11.80;99.90;;;10.70;93.03;101695.03;4990720;28;20046;-76
2023/07/07 00:48:41;;;;;;;8.70;2.92;;;11.70;99.90;;;10.66;91.64;101690.78;4988385;28;20042;-76
2023/07/07 00:51:16;;;;;;;13.23;3.47;;;11.70;99.90;;;10.63;91.01;101699.63;4972702;28;20487;-77
2023/07/07 00:53:45;;;;;;;6.63;3.00;;;11.70;99.90;;;10.59;90.30;101700.63;4989358;28;20121;-75
2023/07/07 00:56:23;;;;;;;10.27;4.10;;;11.60;99.90;;;10.59;90.58;101707.69;4988462;28;20046;-75
2023/07/07 00:58:50;;;;;;;5.63;4.10;;;11.60;99.90;;;10.54;91.33;101710.47;4987158;28;20095;-75
2023/07/07 01:01:17;;;;;;;10.25;5.07;;;11.60;99.90;;;10.49;92.59;101700.97;4997618;28;20041;-77
2023/07/07 01:03:53;;;;;;;8.20;5.50;;;11.60;99.90;;;10.49;94.28;101709.72;4986688;28;20187;-76
2023/07/07 01:06:25;;;;;;;11.03;5.60;;;11.60;99.90;;;10.49;95.80;101708.88;4988979;28;20030;-76
2023/07/07 01:09:06;;;;;;;5.85;3.20;;;11.60;99.90;;;10.49;95.65;101711.50;4985766;28;20281;-76
2023/07/07 01:11:33;;;;;;;12.90;5.20;;;11.60;99.90;;;10.44;94.45;101707.22;4987405;28;20034;-77
2023/07/07 01:14:01;;;;;;;6.82;3.80;;;11.50;99.90;;;10.41;93.51;101704.72;4988657;28;20065;-75
2023/07/07 01:17:28;;;;;;;6.82;4.75;;;11.50;99.90;;;10.38;92.52;101703.94;4987489;28;20030;-77
2023/07/07 01:20:12;;;;;;;13.57;5.32;;;11.40;99.90;;;10.29;92.86;101705.06;4985578;28;20477;-75
2023/07/07 01:23:35;;;;;;;3.17;2.33;;;11.30;99.90;;;10.16;91.60;101703.69;4985537;28;20535;-75
2023/07/07 01:26:51;;;;;;;7.68;3.15;;;11.20;99.90;;;10.02;90.34;101701.41;4984866;28;20632;-76
2023/07/07 01:29:56;;;;;;;3.17;1.20;;;11.00;99.90;;;9.86;89.27;101711.53;4851963;29;20052;-75
2023/07/07 01:32:27;;;;;;;5.22;1.52;;;11.00;99.90;;;9.76;87.97;101704.78;4862912;29;20041;-76
2023/07/07 01:34:58;;;;;;;1.58;1.00;;;10.90;99.90;;;9.67;86.50;101699.78;4846871;29;20052;-75
2023/07/07 01:37:24;;;;;;;6.63;2.03;;;10.80;99.90;;;9.60;85.79;101694.69;4845662;29;20495;-77
2023/07/07 01:39:53;;;;;;;9.35;2.40;;;10.80;99.90;;;9.49;86.24;101698.53;4848319;29;20754;-75
2023/07/07 01:42:45;;;;;;;5.88;3.72;;;10.60;99.90;;;9.35;86.28;101701.50;4847121;29;20045;-75
2023/07/07 01:45:38;;;;;;;3.63;1.20;;;10.40;99.90;;;9.16;86.24;101695.88;4848280;29;20046;-75
2023/07/07 01:48:46;;;;;;;3.75;0.90;;;10.30;99.90;;;9.03;85.41;101692.69;4862240;29;20033;-76
2023/07/07 01:51:14;;;;;;;1.50;0.98;;;10.20;99.90;;;8.96;85.66;101696.34;4859733;29;20225;-76
2023/07/07 01:53:43;;;;;;;5.18;1.35;;;10.20;99.90;;;8.91;84.80;101690.34;4849286;29;20067;-76
2023/07/07 01:56:10;;;;;;;2.25;1.13;;;10.10;99.90;;;8.90;85.54;101697.38;4840183;29;20523;-75
2023/07/07 01:58:37;;;;;;;4.20;1.95;;;10.10;99.90;;;8.91;87.00;101700.84;4861990;29;20064;-75
2023/07/07 02:01:03;;;;;;;9.45;4.47;;;10.10;99.90;;;8.95;88.59;101699.88;4862169;29;20062;-76
2023/07/07 02:03:29;;;;;;;7.43;5.13;;;10.10;99.90;;;8.98;90.95;101707.69;4858311;29;20048;-75
2023/07/07 02:05:55;;;;;;;7.38;3.92;;;10.10;99.90;;;9.00;92.37;101704.09;4934229;28;20371;-75
2023/07/07 02:08:21;;;;;;;11.45;4.65;;;10.10;99.90;;;9.00;92.90;101705.88;4991916;28;20033;-78
2023/07/07 02:10:46;;;;;;;4.63;2.83;;;10.10;99.90;;;8.98;93.02;101705.91;4992888;28;20038;-75
2023/07/07 02:13:12;;;;;;;10.80;4.72;;;10.10;99.90;;;8.98;92.84;101697.16;4979948;28;20069;-77
2023/07/07 02:15:38;;;;;;;10.40;5.82;;;10.10;99.90;;;8.99;93.75;101701.53;4992876;28;20125;-75
2023/07/07 02:18:04;;;;;;;5.22;1.67;;;10.10;99.90;;;8.96;94.21;101701.59;4975985;28;20046;-80
2023/07/07 02:20:31;;;;;;;8.50;3.30;;;10.10;99.90;;;8.92;93.33;101697.31;4986767;28;20038;-75
2023/07/07 02:22:57;;;;;;;3.35;2.40;;;10.10;99.90;;;8.90;92.75;101702.63;4982255;28;20030;-77
2023/07/07 02:25:22;;;;;;;4.43;1.63;;;10.00;99.90;;;8.86;92.24;101708.00;4991232;28;20042;-78
2023/07/07 02:27:48;;;;;;;9.65;3.17;;;10.00;99.90;;;8.80;91.18;101696.72;4992918;28;20038;-76
2023/07/07 02:30:14;;;;;;;4.32;2.10;;;9.90;99.90;;;8.75;90.76;101703.00;4988353;28;20045;-78
2023/07/07 02:32:40;;;;;;;2.25;1.48;;;9.90;99.90;;;8.68;89.78;101709.25;4990215;28;20518;-78
2023/07/07 02:35:10;;;;;;;3.90;3.10;;;9.80;99.90;;;8.60;88.77;101704.22;4987821;28;20109;-77
2023/07/07 02:37:35;;;;;;;9.70;3.75;;;9.70;99.90;;;8.55;89.41;101700.81;4989196;28;20096;-78
2023/07/07 02:40:02;;;;;;;7.32;4.10;;;9.70;99.90;;;8.54;90.32;101706.97;4990394;28;20034;-77
2023/07/07 02:42:28;;;;;;;6.10;3.40;;;9.70;99.90;;;8.55;91.84;101706.94;4988879;28;20493;-78
2023/07/07 02:44:53;;;;;;;10.52;4.97;;;9.70;99.90;;;8.57;91.69;101701.63;4990137;28;20045;-75
2023/07/07 02:47:19;;;;;;;7.00;4.00;;;9.70;99.90;;;8.61;93.27;101711.16;4972743;28;20121;-78
2023/07/07 02:49:45;;;;;;;4.35;2.90;;;9.70;99.90;;;8.62;93.47;101702.41;4990362;28;20026;-75
2023/07/07 02:52:11;;;;;;;3.40;1.90;;;9.70;99.90;;;8.63;92.98;101709.38;4991574;28;20041;-79
2023/07/07 02:54:37;;;;;;;7.10;2.42;;;9.80;99.90;;;8.66;93.21;101706.69;4989567;28;20873;-79
2023/07/07 02:57:04;;;;;;;9.98;4.15;;;9.80;99.90;;;8.72;92.30;101710.94;4990039;28;20410;-75
2023/07/07 02:59:30;;;;;;;8.80;5.03;;;9.80;99.90;;;8.78;93.45;101703.75;4992358;28;20052;-75
2023/07/07 03:01:55;;;;;;;7.25;5.53;;;9.90;99.90;;;8.88;94.04;101711.44;4987675;28;20136;-77
2023/07/07 03:04:24;;;;;;;12.68;7.13;;;9.90;99.90;;;8.97;95.15;101719.09;4989186;28;20050;-76
2023/07/07 03:06:51;;;;;;;9.65;3.22;;;10.00;99.90;;;9.05;95.39;101727.66;4981993;28;20041;-77
2023/07/07 03:09:16;;;;;;;2.78;1.60;;;10.10;99.90;;;9.10;94.90;101725.78;4989663;28;20168;-77
2023/07/07 03:11:42;;;;;;;6.55;5.05;;;10.20;99.90;;;9.19;93.93;101724.69;4988412;28;20046;-78
2023/07/07 03:14:08;;;;;;;10.77;4.85;;;10.20;99.90;;;9.24;93.89;101731.56;4991382;28;20045;-76
2023/07/07 03:16:34;;;;;;;4.97;2.92;;;10.30;99.90;;;9.29;93.26;101725.31;4988501;28;20119;-78
2023/07/07 03:19:08;;;;;;;4.15;2.88;;;10.30;99.90;;;9.30;92.08;101733.16;4990550;28;20445;-74
2023/07/07 03:21:34;;;;;;;4.95;3.08;;;10.30;99.90;;;9.28;89.88;101729.72;4989202;28;20124;-76
2023/07/07 03:24:00;;;;;;;8.90;4.35;;;10.30;99.90;;;9.31;88.67;101732.28;4988959;28;20184;-76
2023/07/07 03:26:27;;;;;;;13.85;7.18;;;10.30;99.90;;;9.36;89.88;101730.38;4991677;28;20539;-75
2023/07/07 03:28:54;;;;;;;19.52;8.55;;;10.40;99.90;;;9.47;92.78;101732.75;4988517;28;20026;-78
2023/07/07 03:31:30;;;;;;;20.05;5.65;;;10.50;99.90;;;9.57;94.64;101736.84;4986167;28;20034;-76
2023/07/07 03:33:59;;;;;;;11.23;5.43;;;10.50;99.90;;;9.66;95.93;101743.63;4988496;28;20030;-77
2023/07/07 03:36:31;;;;;;;7.47;5.60;;;10.70;99.90;;;9.74;96.70;101741.69;4989217;28;20034;-75
2023/07/07 03:38:57;;;;;;;9.45;3.70;;;10.70;99.90;;;9.85;95.64;101741.38;4979608;28;20128;-78
2023/07/07 03:41:27;;;;;;;4.93;3.35;;;10.80;99.90;;;9.89;93.02;101748.25;4971514;28;20034;-78
2023/07/07 03:43:54;;;;;;;3.58;3.10;;;10.90;99.90;;;9.99;90.10;101747.09;4988119;28;20049;-78
2023/07/07 03:46:24;;;;;;;4.57;3.28;;;12.10;99.90;;;11.24;87.25;101772.38;4987315;28;20097;-76
2023/07/07 03:48:50;;;;;;;3.30;2.67;;;13.70;99.90;;;13.01;82.51;101781.84;4988852;28;20058;-78
2023/07/07 03:51:18;;;;;;;5.93;2.75;;;15.30;99.90;;;14.83;75.75;101793.38;4972751;28;20034;-77
2023/07/07 03:53:45;;;;;;;5.22;3.72;;;16.80;99.90;;;16.44;70.58;101795.84;4978905;28;20038;-75
2023/07/07 03:56:12;;;;;;;7.82;3.55;;;18.00;99.90;;;17.64;66.21;101794.41;4989566;28;20049;-75
2023/07/07 03:58:38;;;;;;;6.72;3.00;;;18.80;99.90;;;18.45;63.03;101796.63;4988831;28;20096;-75
2023/07/07 04:01:07;;;;;;;7.90;4.72;;;19.40;99.90;;;18.96;61.99;101817.41;4989064;28;20029;-75
2023/07/07 04:03:33;;;;;;;7.07;4.85;;;19.80;99.90;;;19.41;61.29;101810.00;4987054;28;20045;-76
2023/07/07 04:06:00;;;;;;;10.88;4.78;;;20.30;99.90;;;19.69;60.30;101817.03;4970254;28;20038;-78
2023/07/07 04:08:26;;;;;;;5.95;4.80;;;20.80;99.90;;;20.23;59.26;101830.25;4987715;28;20076;-75
2023/07/07 04:11:10;;;;;;;9.57;4.80;;;21.30;99.90;;;20.68;57.62;101821.78;4989888;28;20548;-75
2023/07/07 04:13:38;;;;;;;8.07;4.63;;;21.90;99.90;;;21.25;56.21;101833.69;4973370;28;20406;-75
2023/07/07 04:16:34;;;;;;;5.78;3.90;;;21.60;99.90;;;21.22;56.17;101841.97;4989057;28;20061;-75
2023/07/07 04:18:59;;;;;;;9.57;4.25;;;22.40;99.90;;;22.42;53.88;101862.34;4978276;28;20042;-75
2023/07/07 04:21:28;;;;;;;9.68;3.70;;;23.20;99.90;;;23.48;51.61;101872.63;4990543;28;20509;-75
2023/07/07 04:23:57;;;;;;;10.50;4.68;;;23.70;99.00;;;23.65;50.33;101869.38;4972530;28;20137;-75
2023/07/07 04:26:25;;;;;;;8.73;4.30;;;23.80;98.20;;;23.81;49.90;101889.63;4971243;28;20055;-75
2023/07/07 04:28:53;;;;;;;11.35;3.80;;;24.50;97.50;;;24.83;48.31;101892.47;4987366;28;20459;-77
2023/07/07 04:31:23;;;;;;;7.22;4.05;;;24.70;97.40;;;24.83;47.71;101896.00;4986795;28;20510;-75
2023/07/07 04:33:49;;;;;;;9.63;3.72;;;24.40;95.90;;;23.97;48.46;101894.53;4986793;28;20046;-76
2023/07/07 04:36:15;;;;;;;12.35;4.07;;;24.10;96.00;;;24.03;48.71;101899.41;4989130;28;20061;-75
2023/07/07 04:38:42;;;;;;;7.93;3.85;;;24.60;96.00;;;25.36;46.55;101919.19;4987359;28;20049;-77
2023/07/07 04:41:22;;;;;;;6.18;3.25;;;25.40;96.20;;;26.78;44.60;101950.91;4987389;28;20030;-75
2023/07/07 04:43:56;;;;;;;5.90;2.97;;;26.40;95.80;;;28.18;42.80;101965.94;4987465;28;20050;-76
2023/07/07 04:46:27;;;;;;;10.88;3.38;;;27.40;95.10;;;29.43;40.39;101976.31;4988359;28;20042;-75
2023/07/07 04:48:53;;;;;;;8.27;3.33;;;27.50;94.40;;;30.32;39.04;101979.34;4988510;28;20041;-75
2023/07/07 04:51:20;;;;;;;6.45;3.17;;;28.50;93.30;;;30.98;37.95;101984.66;4987342;28;20372;-75
2023/07/07 04:53:46;;;;;;;7.97;3.10;;;29.80;91.90;;;31.72;37.26;102001.47;4985750;28;20133;-75
2023/07/07 04:56:18;;;;;;;9.05;2.60;;;30.40;91.50;;;32.48;36.05;102007.88;4987178;28;20047;-78
2023/07/07 04:58:50;;;;;;;8.40;3.10;;;31.00;91.00;;;33.35;34.86;102010.97;4988168;28;20030;-76
2023/07/07 05:01:29;;;;;;;6.63;2.90;;;31.70;90.00;;;34.03;34.18;102025.19;4987691;28;20100;-75
2023/07/07 05:04:01;;;;;;;7.88;3.20;;;32.30;88.60;;;34.73;33.00;102028.94;4983796;28;20095;-75
2023/07/07 05:06:31;;;;;;;3.88;2.58;;;32.80;86.60;;;35.15;32.34;102035.34;4986520;28;20026;-75
2023/07/07 05:08:57;;;;;;;6.53;2.58;;;33.20;84.40;;;35.23;31.93;102039.78;4968940;28;20371;-75
2023/07/07 05:11:27;;;;;;;6.32;2.90;;;33.40;83.30;;;35.47;31.78;102043.91;4971623;28;20038;-76
2023/07/07 05:13:53;;;;;;;11.27;2.58;;;33.60;82.80;;;35.80;30.94;102035.78;4987668;28;20384;-75
2023/07/07 05:16:24;;;;;;;7.45;2.30;;;33.90;82.50;;;36.33;30.72;102037.78;4985838;28;20077;-76
2023/07/07 05:18:51;;;;;;;4.38;2.35;;;34.20;82.00;;;36.95;29.62;102057.53;4987519;28;20057;-75
2023/07/07 05:21:20;;;;;;;6.38;2.30;;;34.60;80.10;;;37.27;29.32;102064.00;4986772;28;20077;-75
2023/07/07 05:23:47;;;;;;;4.28;2.25;;;34.90;79.40;;;37.38;29.09;102067.97;4986833;28;20057;-75
2023/07/07 05:26:13;;;;;;;7.00;2.40;;;35.10;79.90;;;37.82;29.18;102079.19;4986278;28;20034;-76
2023/07/07 05:28:39;;;;;;;8.30;2.22;;;35.20;78.40;;;38.08;28.58;102079.06;4985331;28;20045;-75
2023/07/07 05:31:07;;;;;;;4.47;1.83;;;35.60;78.50;;;38.73;28.04;102081.47;4987252;28;20046;-77
2023/07/07 05:33:34;;;;;;;8.02;2.30;;;36.00;77.90;;;38.95;27.50;102081.06;4985804;28;20529;-76
2023/07/07 05:36:02;;;;;;;4.93;2.10;;;36.30;75.90;;;39.30;27.18;102084.03;4984496;28;20038;-76
2023/07/07 05:38:29;;;;;;;4.60;2.35;;;36.70;75.80;;;39.54;26.54;102082.25;4967824;28;20034;-75
2023/07/07 05:40:55;;;;;;;3.33;1.95;;;37.00;75.30;;;39.87;26.83;102086.47;4985680;28;20391;-77
2023/07/07 05:43:24;;;;;;;10.75;2.00;;;37.20;74.40;;;40.14;26.49;102089.69;4986358;28;20065;-76
2023/07/07 05:46:04;;;;;;;3.58;1.80;;;37.50;74.70;;;40.41;25.60;102097.53;4987784;28;20030;-76
2023/07/07 05:48:31;;;;;;;8.10;1.90;;;37.80;72.80;;;40.59;25.45;102102.13;4972782;28;20395;-75
2023/07/07 05:51:00;;;;;;;5.00;1.70;;;38.10;72.30;;;41.14;24.75;102095.38;4985707;28;20034;-75
2023/07/07 05:53:27;;;;;;;4.30;1.83;;;38.50;70.40;;;41.42;24.62;102102.88;4985805;28;20025;-75
2023/07/07 05:56:03;;;;;;;4.47;1.65;;;38.80;69.60;;;41.81;24.08;102103.94;4986249;28;21681;-76
2023/07/07 05:58:30;;;;;;;3.47;1.50;;;39.00;68.20;;;41.63;23.77;102104.16;4986260;28;20458;-76
2023/07/07 06:00:58;;;;;;;3.95;1.60;;;39.20;68.10;;;41.62;23.78;102094.16;4988542;28;20061;-75
2023/07/07 06:03:24;;;;;;;6.68;2.03;;;39.30;67.60;;;41.66;23.77;102098.13;4984954;28;20033;-76
2023/07/07 06:05:50;;;;;;;4.63;2.03;;;39.50;67.30;;;41.77;23.63;102094.50;4967670;28;20145;-76
2023/07/07 06:08:16;;;;;;;3.97;1.50;;;39.70;66.50;;;41.84;23.87;102093.47;4989156;28;20155;-76
2023/07/07 06:10:41;;;;;;;4.90;1.50;;;39.90;65.50;;;41.77;23.66;102094.50;4990189;28;20116;-77
2023/07/07 06:13:07;;;;;;;4.10;1.83;;;39.90;64.90;;;41.84;23.59;102087.94;4985251;28;20081;-75
2023/07/07 06:15:33;;;;;;;4.82;1.40;;;40.00;63.40;;;41.68;23.14;102093.19;4987259;28;20034;-76
2023/07/07 06:17:59;;;;;;;9.27;1.48;;;40.10;63.40;;;41.74;23.21;102083.91;4988068;28;20114;-75
2023/07/07 06:20:25;;;;;;;3.38;1.48;;;40.10;64.10;;;41.85;23.01;102084.09;4987974;28;20113;-76
2023/07/07 06:22:53;;;;;;;4.82;1.50;;;40.30;64.10;;;41.98;23.20;102081.84;4985522;28;20117;-76
2023/07/07 06:25:18;;;;;;;8.50;1.50;;;40.60;63.90;;;42.36;22.91;102076.69;4986186;28;20034;-75
2023/07/07 06:27:44;;;;;;;4.57;1.60;;;40.80;62.20;;;42.51;22.59;102089.94;4988855;28;20441;-77
2023/07/07 06:30:10;;;;;;;3.63;1.67;;;41.10;62.30;;;42.64;22.63;102081.31;4988177;28;20402;-76
2023/07/07 06:32:36;;;;;;;5.13;1.75;;;41.20;60.00;;;42.42;22.73;102084.00;4987425;28;20441;-75
2023/07/07 06:35:03;;;;;;;4.10;1.73;;;41.30;61.20;;;42.59;22.74;102081.22;4982372;28;20069;-76
2023/07/07 06:37:29;;;;;;;5.75;1.52;;;41.40;60.80;;;42.70;22.78;102071.13;4978778;28;20668;-75
2023/07/07 06:39:55;;;;;;;5.68;1.60;;;41.60;60.90;;;42.83;22.48;102079.09;4993617;28;20034;-75
2023/07/07 06:42:22;;;;;;;4.70;1.48;;;41.70;60.00;;;42.93;22.36;102070.91;4988624;28;20038;-76
2023/07/07 06:44:47;;;;;;;3.75;1.40;;;41.90;59.40;;;43.13;21.85;102073.09;4991003;28;20114;-75
2023/07/07 06:47:16;;;;;;;4.28;1.50;;;42.10;59.10;;;43.15;21.70;102065.38;4989164;28;20036;-75
2023/07/07 06:49:42;;;;;;;6.47;1.35;;;42.10;59.00;;;42.71;22.23;102075.56;4987491;28;20034;-75
2023/07/07 06:52:08;;;;;;;8.80;1.65;;;42.00;58.60;;;42.49;22.19;102059.75;4989624;28;20048;-75
2023/07/07 06:54:34;;;;;;;4.38;1.63;;;42.00;58.50;;;42.55;21.92;102061.53;4992394;28;20141;-75
2023/07/07 06:57:00;;;;;;;3.15;1.30;;;41.90;58.20;;;42.24;22.18;102062.09;4989364;28;20093;-75
2023/07/07 06:59:26;;;;;;;3.75;1.30;;;41.80;58.00;;;42.07;21.87;102054.63;4978294;28;20058;-75
2023/07/07 07:01:52;;;;;;;5.13;1.58;;;41.70;57.60;;;41.72;21.79;102050.13;4989868;28;20133;-74
2023/07/07 07:04:17;;;;;;;5.18;1.38;;;41.30;57.00;;;41.33;22.44;102046.34;4987740;28;20040;-75
2023/07/07 07:06:44;;;;;;;7.95;1.88;;;41.00;57.10;;;41.21;22.53;102038.06;4986443;28;20133;-76
2023/07/07 07:09:10;;;;;;;2.95;1.33;;;40.90;56.60;;;41.11;22.76;102043.38;4990454;28;20053;-75
2023/07/07 07:11:37;;;;;;;5.20;1.30;;;40.90;57.50;;;41.20;22.93;102044.69;4987981;28;20088;-75
2023/07/07 07:14:02;;;;;;;6.50;1.55;;;40.90;57.70;;;41.29;22.66;102039.63;4990515;28;20263;-75
2023/07/07 07:16:28;;;;;;;5.90;1.40;;;40.80;57.10;;;40.79;23.53;102030.00;4985746;28;20037;-75
2023/07/07 07:18:54;;;;;;;5.75;1.35;;;40.70;57.70;;;41.01;23.51;102024.66;4990201;28;20084;-76
2023/07/07 07:21:20;;;;;;;4.15;1.50;;;40.60;57.40;;;40.46;23.65;102017.66;4971894;28;20134;-75
2023/07/07 07:23:46;;;;;;;6.00;1.60;;;40.30;56.90;;;40.27;23.08;102027.09;4989987;28;20042;-76
2023/07/07 07:26:12;;;;;;;3.30;1.40;;;40.10;57.40;;;40.22;23.40;102026.94;4991993;28;20402;-76
2023/07/07 07:28:38;;;;;;;2.78;1.10;;;40.10;57.40;;;40.28;23.19;102021.34;4977839;28;20116;-75
2023/07/07 07:31:03;;;;;;;3.30;1.40;;;40.10;58.00;;;40.57;23.27;102019.56;4992903;28;20030;-76
2023/07/07 07:33:31;;;;;;;3.45;1.35;;;40.30;57.10;;;40.71;22.74;102019.28;4989658;28;20146;-75
2023/07/07 07:35:56;;;;;;;6.30;1.73;;;40.30;57.40;;;40.71;23.46;102025.66;4988601;28;20037;-75
2023/07/07 07:38:22;;;;;;;3.40;1.33;;;40.30;57.20;;;40.37;23.42;102014.41;4987903;28;20639;-76
2023/07/07 07:40:52;;;;;;;3.75;1.35;;;40.20;57.10;;;40.48;23.16;102015.50;4990835;28;20038;-75
2023/07/07 07:43:19;;;;;;;5.13;1.35;;;40.10;56.90;;;40.39;22.77;102019.66;4989554;28;20030;-77
2023/07/07 07:45:45;;;;;;;3.70;1.35;;;40.00;57.30;;;40.17;23.48;102019.41;4986479;28;20030;-75
2023/07/07 07:48:11;;;;;;;2.47;1.30;;;39.70;55.90;;;39.35;23.93;102018.06;4989329;28;20498;-76
2023/07/07 07:50:36;;;;;;;4.50;1.58;;;39.40;57.10;;;39.37;24.07;102004.88;4987875;28;20030;-75
2023/07/07 07:53:02;;;;;;;5.93;1.30;;;39.20;57.20;;;39.41;23.94;101998.94;4971588;28;20483;-77
2023/07/07 07:55:28;;;;;;;3.88;1.48;;;39.20;57.80;;;39.29;24.14;102002.47;4973259;28;20729;-76
2023/07/07 07:57:54;;;;;;;3.17;1.67;;;38.90;56.10;;;38.61;24.27;102008.16;4987782;28;20038;-76
2023/07/07 08:00:20;;;;;;;3.13;1.38;;;38.40;56.60;;;38.00;23.90;101994.06;4989938;28;20080;-76
2023/07/07 08:02:48;;;;;;;3.85;1.60;;;38.00;57.40;;;37.64;25.09;101987.34;4987992;28;20123;-75
2023/07/07 08:05:14;;;;;;;3.53;1.42;;;37.70;57.20;;;37.51;24.60;101984.66;4986815;28;20112;-75
2023/07/07 08:07:40;;;;;;;6.22;1.70;;;37.50;57.90;;;37.54;25.00;101989.72;4988396;28;20515;-75
2023/07/07 08:10:08;;;;;;;4.57;1.38;;;37.30;58.00;;;37.43;24.77;101987.66;4994220;28;20084;-76
2023/07/07 08:12:34;;;;;;;7.47;1.25;;;37.10;57.70;;;37.10;24.61;101977.69;5030028;22;20132;-70
2023/07/07 08:14:59;;;;;;;4.97;1.50;;;36.80;58.40;;;36.78;26.05;101966.59;5014774;28;20148;-70
2023/07/07 08:17:25;;;;;;;5.38;1.50;;;36.60;58.40;;;36.54;25.71;101966.19;5008240;28;20175;-71
2023/07/07 08:19:53;;;;;;;2.95;1.50;;;36.30;59.20;;;36.34;25.83;101957.19;5010777;28;20025;-71
2023/07/07 08:22:23;;;;;;;7.47;1.50;;;36.20;59.00;;;36.33;26.54;101963.75;5002929;28;20034;-71
2023/07/07 08:24:56;;;;;;;4.53;1.48;;;36.00;59.20;;;36.03;26.43;101952.34;4993320;28;20446;-70
2023/07/07 08:27:26;;;;;;;4.00;1.30;;;35.70;59.50;;;35.51;26.84;101938.38;5009612;28;20053;-71
2023/07/07 08:29:53;;;;;;;6.50;1.83;;;35.40;59.30;;;35.08;27.37;101935.91;5010640;28;20670;-71
2023/07/07 08:32:21;;;;;;;8.38;1.60;;;34.90;59.10;;;34.49;27.57;101923.59;5011258;28;20598;-70
2023/07/07 08:34:49;;;;;;;3.00;1.50;;;34.40;60.20;;;33.84;28.90;101912.78;5010615;28;20042;-70
2023/07/07 08:37:17;;;;;;;3.78;1.50;;;33.90;61.00;;;33.50;29.08;101898.00;5010474;28;20570;-71
2023/07/07 08:39:44;;;;;;;3.15;1.40;;;33.50;61.40;;;33.04;29.28;101900.19;5008668;28;20418;-70
2023/07/07 08:42:37;;;;;;;4.63;1.50;;;33.20;61.60;;;32.32;30.11;101890.81;5015810;28;20041;-71
2023/07/07 08:45:18;;;;;;;6.22;1.50;;;32.70;62.60;;;31.76;31.02;101876.72;5013150;28;20057;-70
2023/07/07 08:48:32;;;;;;;2.30;1.42;;;32.30;63.70;;;31.36;30.70;101876.84;5017127;28;20114;-71
2023/07/07 08:51:04;;;;;;;7.03;1.50;;;32.00;65.10;;;31.55;31.92;101867.34;5015853;28;20030;-71
2023/07/07 08:53:55;;;;;;;5.35;1.42;;;32.00;67.40;;;31.76;32.58;101874.00;5017522;28;20029;-71
2023/07/07 08:56:57;;;;;;;4.75;2.00;;;32.00;65.30;;;31.89;31.86;101879.66;5000498;28;20036;-71
2023/07/07 08:59:59;;;;;;;5.75;2.00;;;32.10;65.30;;;31.81;31.40;101875.13;5016047;28;20041;-71
2023/07/07 09:02:56;;;;;;;3.42;1.77;;;31.90;64.00;;;31.49;31.22;101862.66;5009693;28;20564;-71
2023/07/07 09:05:57;;;;;;;;;;;31.90;65.40;;;31.05;31.63;101863.25;5010616;28;20040;-71
2023/07/07 09:09:06;;;;;;;2.70;1.60;;;31.40;64.80;;;30.61;32.01;101856.47;4990300;28;20021;-71
2023/07/07 09:12:26;;;;;;;9.85;1.65;;;31.00;65.50;;;30.23;32.34;101849.97;4982966;28;20450;-72
2023/07/07 09:14:55;;;;;;;7.22;1.88;;;30.60;66.40;;;29.73;33.41;101851.91;4939569;29;20055;-71
2023/07/07 09:17:41;;;;;;;8.85;1.95;;;30.20;66.50;;;29.43;33.21;101842.53;4931096;28;20500;-70
2023/07/07 09:20:12;;;;;;;6.05;2.17;;;29.90;69.10;;;29.52;33.47;101843.41;4939395;28;20499;-71
2023/07/07 09:23:06;;;;;;;4.72;1.83;;;29.90;68.80;;;29.74;33.74;101840.03;4918932;28;20035;-70
2023/07/07 09:26:27;;;;;;;3.58;1.50;;;30.00;68.30;;;29.71;34.35;101826.81;4939885;28;20114;-71
2023/07/07 09:29:02;;;;;;;2.92;1.63;;;30.00;67.90;;;29.46;34.13;101834.09;4849498;29;20037;-71
2023/07/07 09:31:41;;;;;;;4.70;1.85;;;29.90;66.50;;;29.21;33.74;101831.34;4861033;29;20066;-71
2023/07/07 09:34:11;;;;;;;5.38;1.90;;;29.70;66.70;;;29.13;33.37;101835.91;4853172;29;20041;-71
2023/07/07 09:36:50;;;;;;;3.70;1.67;;;29.70;67.30;;;29.33;33.14;101842.72;4851935;29;20072;-70
2023/07/07 09:40:13;;;;;;;6.70;1.85;;;29.70;67.80;;;29.36;33.72;101847.81;4853954;29;20521;-71
2023/07/07 09:43:25;;;;;;;3.38;1.70;;;29.90;68.10;;;29.68;33.18;101853.38;4859808;29;20049;-70
2023/07/07 09:46:48;;;;;;;4.75;1.60;;;30.10;67.80;;;29.93;33.52;101855.09;4878930;29;20040;-70
2023/07/07 09:49:43;;;;;;;5.05;1.85;;;30.40;67.70;;;30.31;32.90;101857.28;4810669;29;20187;-71
2023/07/07 09:52:39;;;;;;;6.13;1.70;;;30.70;66.80;;;30.74;33.09;101858.63;4873848;29;20168;-70
2023/07/07 09:55:36;;;;;;;7.03;1.85;;;31.10;67.60;;;30.69;31.86;101854.75;4874856;29;20043;-71
2023/07/07 09:58:15;;;;;;;7.10;1.65;;;31.30;65.20;;;30.99;31.50;101866.69;4861440;29;20135;-71
2023/07/07 10:00:46;;;;;;;6.28;1.60;;;31.20;65.00;;;30.66;31.83;101877.69;4881229;29;20040;-71
2023/07/07 10:03:45;;;;;;;4.90;1.65;;;30.90;63.60;;;30.02;31.72;101861.38;4880477;29;20029;-71
2023/07/07 10:06:56;;;;;;;11.30;2.00;;;30.50;65.80;;;29.78;32.81;101862.25;4913503;29;20134;-72
2023/07/07 10:09:22;;;;;;;3.67;1.77;;;30.20;66.70;;;29.92;33.75;101852.59;4915419;29;20036;-71
2023/07/07 10:11:55;;;;;;;7.25;1.77;;;30.10;67.90;;;29.83;33.54;101855.28;4913380;29;20043;-71
2023/07/07 10:14:22;;;;;;;5.32;1.55;;;30.10;69.00;;;29.72;34.44;101849.34;4909281;29;20564;-71
2023/07/07 10:17:29;;;;;;;6.65;1.55;;;30.10;68.60;;;29.59;33.96;101850.69;4920662;29;20059;-72
2023/07/07 10:19:59;;;;;;;3.80;1.80;;;29.80;69.40;;;29.23;35.00;101844.75;4955447;28;20646;-72
2023/07/07 10:22:26;;;;;;;4.15;1.52;;;29.50;71.20;;;28.74;35.88;101834.56;5014000;28;20128;-72
2023/07/07 10:24:54;;;;;;;9.18;1.95;;;29.10;70.20;;;28.45;36.20;101836.81;5016196;28;20048;-71
2023/07/07 10:27:27;;;;;;;3.90;1.77;;;28.80;71.10;;;28.18;36.26;101833.28;5014956;28;20072;-72
2023/07/07 10:30:03;;;;;;;5.20;1.90;;;28.60;72.10;;;27.88;36.91;101830.03;5005034;28;20041;-72
2023/07/07 10:32:29;;;;;;;6.32;1.88;;;28.30;73.00;;;27.77;37.55;101825.69;5003323;28;20051;-72
2023/07/07 10:35:09;;;;;;;3.97;1.80;;;28.20;73.50;;;27.74;37.90;101814.38;5021142;28;20041;-72